Time;durP1;ratioP1;P1;durP2;ratioP2;P2;SDS_P1;SDS_P2;PMS_P1;PMS_P2;Temp;Humidity;BMP_temperature;BMP_pressure;BME280_temperature;BME280_humidity;BME280_pressure;Samples;Min_cycle;Max_cycle;Signal;HPM_P1;HPM_P2
2021/07/04 00:00:50;;;;;;;8.03;6.20;;;20.90;99.90;;;;;;4915917;29;20450;-46
2021/07/04 00:03:17;;;;;;;6.63;5.40;;;20.90;99.90;;;;;;4916214;29;20485;-46
2021/07/04 00:05:46;;;;;;;7.40;6.57;;;20.90;99.90;;;;;;4915981;29;20474;-49
2021/07/04 00:08:15;;;;;;;7.60;6.17;;;20.90;99.90;;;;;;4915564;29;20465;-45
2021/07/04 00:10:45;;;;;;;13.03;7.07;;;20.90;99.90;;;;;;4915625;29;20479;-45
2021/07/04 00:13:15;;;;;;;7.83;7.03;;;20.80;99.90;;;;;;4916579;29;20848;-50
2021/07/04 00:15:43;;;;;;;7.60;5.63;;;20.80;99.90;;;;;;4915646;29;20523;-48
2021/07/04 00:18:12;;;;;;;6.70;6.10;;;20.80;99.90;;;;;;4916049;29;20447;-49
2021/07/04 00:20:40;;;;;;;6.83;5.70;;;20.80;99.90;;;;;;4916254;29;20439;-46
2021/07/04 00:23:07;;;;;;;12.53;5.90;;;20.80;99.90;;;;;;4915820;29;20515;-50
2021/07/04 00:25:34;;;;;;;11.10;6.63;;;20.80;99.90;;;;;;4915463;29;20947;-44
2021/07/04 00:28:01;;;;;;;8.70;6.13;;;20.70;99.90;;;;;;4915726;29;20446;-46
2021/07/04 00:30:29;;;;;;;7.70;6.90;;;20.70;99.90;;;;;;4915783;29;20543;-49
2021/07/04 00:32:55;;;;;;;8.23;6.17;;;20.70;99.90;;;;;;4915373;29;20450;-49
2021/07/04 00:35:23;;;;;;;9.50;6.43;;;20.70;99.90;;;;;;4915897;29;20446;-47
2021/07/04 00:37:51;;;;;;;7.20;6.50;;;20.70;99.90;;;;;;4915132;29;20765;-46
2021/07/04 00:40:22;;;;;;;6.70;6.10;;;20.70;99.90;;;;;;4915415;29;20450;-50
2021/07/04 00:42:50;;;;;;;7.60;5.97;;;20.60;99.90;;;;;;4915871;29;20459;-49
2021/07/04 00:45:18;;;;;;;7.57;6.23;;;20.60;99.90;;;;;;4915281;29;20527;-49
2021/07/04 00:47:47;;;;;;;7.90;6.03;;;20.60;99.90;;;;;;4915404;29;20491;-48
2021/07/04 00:50:15;;;;;;;8.93;6.27;;;20.60;99.90;;;;;;4915078;29;20479;-50
2021/07/04 00:52:43;;;;;;;8.30;7.40;;;20.60;99.90;;;;;;4915153;29;20446;-50
2021/07/04 00:55:12;;;;;;;6.60;6.00;;;20.60;99.90;;;;;;4914912;29;20454;-45
2021/07/04 00:57:39;;;;;;;8.60;7.37;;;20.60;99.90;;;;;;4914799;29;20943;-45
2021/07/04 01:00:09;;;;;;;9.93;6.77;;;20.60;99.90;;;;;;4881198;29;21000;-46
2021/07/04 01:02:35;;;;;;;9.23;7.30;;;20.60;99.90;;;;;;4860492;29;20443;-45
2021/07/04 01:05:06;;;;;;;12.43;7.00;;;20.60;99.90;;;;;;4880528;29;20937;-46
2021/07/04 01:07:32;;;;;;;7.07;6.13;;;20.60;99.90;;;;;;4867858;29;20492;-46
2021/07/04 01:09:59;;;;;;;9.50;7.63;;;20.60;99.90;;;;;;4862067;29;20452;-48
2021/07/04 01:12:26;;;;;;;7.70;6.40;;;20.60;99.90;;;;;;4862062;29;20485;-52
2021/07/04 01:14:53;;;;;;;10.47;7.33;;;20.50;99.90;;;;;;4861907;29;20472;-50
2021/07/04 01:17:19;;;;;;;8.10;6.70;;;20.50;99.90;;;;;;4861864;29;20505;-50
2021/07/04 01:19:46;;;;;;;8.17;7.33;;;20.40;99.90;;;;;;4874548;29;20511;-49
2021/07/04 01:22:16;;;;;;;7.20;6.50;;;20.40;99.90;;;;;;4880472;29;20471;-52
2021/07/04 01:24:47;;;;;;;9.40;6.83;;;20.40;99.90;;;;;;4880226;29;20494;-46
2021/07/04 01:27:14;;;;;;;8.33;7.43;;;20.40;99.90;;;;;;4882198;29;20535;-49
2021/07/04 01:29:41;;;;;;;8.33;7.53;;;20.30;99.90;;;;;;4884221;29;20781;-51
2021/07/04 01:32:08;;;;;;;8.90;7.60;;;20.30;99.90;;;;;;4884195;29;20463;-46
2021/07/04 01:34:34;;;;;;;8.20;7.40;;;20.30;99.90;;;;;;4884201;29;20526;-51
2021/07/04 01:37:01;;;;;;;7.20;6.50;;;20.30;99.90;;;;;;4883837;29;20515;-49
2021/07/04 01:39:28;;;;;;;8.10;7.40;;;20.20;99.90;;;;;;4883989;29;20496;-45
2021/07/04 01:41:56;;;;;;;10.33;7.23;;;20.20;99.90;;;;;;4883982;29;20530;-49
2021/07/04 01:44:23;;;;;;;10.70;8.50;;;20.20;99.90;;;;;;4884089;29;20507;-45
2021/07/04 01:46:50;;;;;;;8.77;7.87;;;20.20;99.90;;;;;;4883745;29;20973;-50
2021/07/04 01:49:17;;;;;;;8.53;7.63;;;20.10;99.90;;;;;;4883630;29;20459;-49
2021/07/04 01:51:44;;;;;;;7.90;7.00;;;20.10;99.90;;;;;;4884174;29;20455;-50
2021/07/04 01:54:10;;;;;;;11.70;8.30;;;20.10;99.90;;;;;;4883354;29;20934;-50
2021/07/04 01:56:37;;;;;;;8.53;7.43;;;20.10;99.90;;;;;;4883485;29;20953;-49
2021/07/04 01:59:05;;;;;;;7.60;6.90;;;20.10;99.90;;;;;;4884082;29;20458;-48
2021/07/04 02:01:32;;;;;;;8.67;7.77;;;20.10;99.90;;;;;;4883773;29;20467;-49
2021/07/04 02:03:58;;;;;;;9.63;8.10;;;20.10;99.90;;;;;;4883798;29;20491;-47
2021/07/04 02:06:25;;;;;;;9.80;7.10;;;20.10;99.90;;;;;;4883485;29;20996;-50
2021/07/04 02:08:52;;;;;;;8.87;7.63;;;20.10;99.90;;;;;;4883720;29;20443;-47
2021/07/04 02:11:19;;;;;;;7.90;7.10;;;20.10;99.90;;;;;;4883810;29;20540;-44
2021/07/04 02:13:45;;;;;;;11.87;7.50;;;20.10;99.90;;;;;;4883682;29;20473;-47
2021/07/04 02:16:13;;;;;;;8.67;7.77;;;20.10;99.90;;;;;;4883712;29;20765;-46
2021/07/04 02:18:40;;;;;;;8.20;7.30;;;20.10;99.90;;;;;;4883394;29;20860;-47
2021/07/04 03:16:11;;;;;;;10.13;9.20;;;20.00;99.90;;;;;;5038387;23;20461;-44
2021/07/04 03:18:38;;;;;;;11.70;8.63;;;20.00;99.90;;;;;;4886716;29;20448;-40
2021/07/04 03:21:05;;;;;;;12.47;8.50;;;20.10;99.90;;;;;;4886666;29;20457;-41
2021/07/04 03:23:32;;;;;;;8.60;7.20;;;20.10;99.90;;;;;;4885225;29;20485;-40
2021/07/04 03:25:59;;;;;;;10.83;8.97;;;20.10;99.90;;;;;;4885610;29;20449;-40
2021/07/04 03:28:26;;;;;;;16.00;8.40;;;20.10;99.90;;;;;;4886328;29;20461;-41
2021/07/04 03:30:52;;;;;;;11.37;9.17;;;20.10;99.90;;;;;;4886584;29;20467;-41
2021/07/04 03:33:20;;;;;;;10.20;8.40;;;20.10;99.90;;;;;;4886495;29;20440;-43
2021/07/04 03:35:47;;;;;;;9.90;8.90;;;20.10;99.90;;;;;;4886119;29;20469;-41
2021/07/04 03:38:13;;;;;;;10.43;9.33;;;20.10;99.90;;;;;;4885982;29;20441;-42
2021/07/04 03:40:40;;;;;;;9.17;8.27;;;20.10;99.90;;;;;;4885566;29;20473;-41
2021/07/04 03:43:10;;;;;;;11.60;9.00;;;20.10;99.90;;;;;;4886591;29;20494;-41
2021/07/04 03:45:36;;;;;;;14.33;9.37;;;20.00;99.90;;;;;;4886230;29;20456;-45
2021/07/04 03:48:03;;;;;;;17.40;9.43;;;20.00;99.90;;;;;;4886751;29;20484;-51
2021/07/04 03:50:31;;;;;;;11.90;9.07;;;20.00;99.90;;;;;;4886033;29;20428;-43
2021/07/04 03:52:58;;;;;;;9.40;8.50;;;20.00;99.90;;;;;;4886898;29;20428;-43
2021/07/04 03:55:25;;;;;;;9.70;8.70;;;20.10;99.90;;;;;;4886638;29;20453;-41
2021/07/04 03:57:52;;;;;;;10.70;8.50;;;20.10;99.90;;;;;;4882587;29;20468;-44
2021/07/04 04:00:20;;;;;;;16.83;9.07;;;20.10;99.90;;;;;;4844599;29;20512;-45
2021/07/04 04:02:46;;;;;;;10.63;9.63;;;20.10;99.90;;;;;;4843935;29;20488;-46
2021/07/04 04:05:14;;;;;;;11.97;8.67;;;20.10;99.90;;;;;;4844171;29;20524;-48
2021/07/04 04:07:45;;;;;;;10.57;8.23;;;20.10;99.90;;;;;;4844446;29;21039;-42
2021/07/04 04:10:13;;;;;;;10.37;9.37;;;20.10;99.90;;;;;;4844283;29;20462;-48
2021/07/04 04:12:40;;;;;;;12.00;9.90;;;20.10;99.90;;;;;;4843983;29;20923;-47
2021/07/04 04:15:08;;;;;;;11.77;10.30;;;20.10;99.90;;;;;;4843921;29;20879;-45
2021/07/04 04:17:37;;;;;;;11.50;9.27;;;20.10;99.90;;;;;;4844278;29;20449;-47
2021/07/04 04:20:06;;;;;;;10.57;9.27;;;20.10;99.90;;;;;;4843907;29;20457;-44
2021/07/04 04:22:32;;;;;;;11.20;8.00;;;20.10;99.90;;;;;;4844103;29;20457;-44
2021/07/04 04:25:00;;;;;;;11.03;9.17;;;20.10;99.90;;;;;;4843673;29;20870;-42
2021/07/04 04:27:27;;;;;;;11.17;9.10;;;20.20;99.90;;;;;;4844041;29;20557;-43
2021/07/04 04:29:54;;;;;;;12.47;9.67;;;20.20;99.90;;;;;;4844100;29;20453;-41
2021/07/04 04:32:21;;;;;;;11.03;9.93;;;20.20;99.90;;;;;;4843824;29;20493;-45
2021/07/04 04:34:48;;;;;;;11.13;9.60;;;20.10;99.90;;;;;;4843714;29;20465;-41
2021/07/04 04:37:14;;;;;;;13.57;8.90;;;20.10;99.90;;;;;;4843654;29;20947;-49
2021/07/04 04:39:42;;;;;;;12.03;10.23;;;20.10;99.90;;;;;;4843620;29;20450;-46
2021/07/04 04:42:11;;;;;;;11.00;9.90;;;20.10;99.90;;;;;;4843580;29;20476;-49
2021/07/04 04:44:37;;;;;;;11.30;10.10;;;20.10;99.90;;;;;;4843538;29;20457;-45
2021/07/04 04:47:05;;;;;;;12.60;9.40;;;20.10;99.90;;;;;;4843678;29;20967;-46
2021/07/04 04:49:33;;;;;;;12.43;11.17;;;20.00;99.90;;;;;;4843631;29;20529;-40
2021/07/04 04:51:59;;;;;;;12.77;9.50;;;20.00;99.90;;;;;;4843628;29;20457;-40
2021/07/04 04:54:26;;;;;;;10.03;8.80;;;20.00;99.90;;;;;;4843598;29;20472;-46
2021/07/04 04:56:53;;;;;;;15.20;10.30;;;19.90;99.90;;;;;;4843392;29;20467;-44
2021/07/04 04:59:21;;;;;;;10.87;9.30;;;19.90;99.90;;;;;;4843629;29;20521;-41
2021/07/04 05:01:47;;;;;;;13.27;10.53;;;19.90;99.90;;;;;;4843187;29;20723;-42
2021/07/04 05:04:14;;;;;;;11.03;9.87;;;19.90;99.90;;;;;;4843400;29;20916;-45
2021/07/04 05:06:42;;;;;;;12.23;9.87;;;19.90;99.90;;;;;;4843118;29;20966;-41
2021/07/04 05:09:08;;;;;;;14.10;10.83;;;19.90;99.90;;;;;;4843320;29;20461;-44
2021/07/04 05:11:35;;;;;;;12.17;10.37;;;19.90;99.90;;;;;;4843433;29;20525;-49
2021/07/04 05:14:02;;;;;;;12.97;9.87;;;19.90;99.90;;;;;;4843149;29;20510;-45
2021/07/04 05:16:30;;;;;;;11.40;9.73;;;19.90;99.90;;;;;;4842937;29;20947;-43
2021/07/04 05:18:58;;;;;;;13.70;10.60;;;19.90;99.90;;;;;;4843371;29;20498;-45
2021/07/04 05:21:24;;;;;;;11.50;10.30;;;19.90;99.90;;;;;;4843182;29;20493;-45
2021/07/04 05:23:51;;;;;;;10.67;9.63;;;19.90;99.90;;;;;;4843464;29;20477;-42
2021/07/04 05:26:19;;;;;;;12.63;11.30;;;20.00;99.90;;;;;;4843074;29;20453;-46
2021/07/04 05:28:46;;;;;;;15.20;9.57;;;20.00;99.90;;;;;;4843257;29;20463;-40
2021/07/04 05:31:13;;;;;;;13.27;10.70;;;20.10;99.90;;;;;;4843094;29;20907;-46
2021/07/04 05:33:41;;;;;;;11.37;9.40;;;20.20;99.90;;;;;;4843136;29;20537;-45
2021/07/04 05:36:08;;;;;;;13.43;10.10;;;20.30;99.90;;;;;;4843268;29;20561;-44
2021/07/04 05:38:36;;;;;;;12.40;10.60;;;20.40;99.90;;;;;;4843027;29;20823;-46
2021/07/04 05:41:03;;;;;;;13.67;10.50;;;20.50;99.90;;;;;;4843144;29;20469;-41
2021/07/04 05:43:29;;;;;;;14.40;10.33;;;20.60;99.90;;;;;;4842938;29;20457;-45
2021/07/04 05:45:59;;;;;;;11.90;10.67;;;20.70;99.90;;;;;;4843060;29;20457;-43
2021/07/04 05:48:26;;;;;;;14.10;11.03;;;20.70;99.90;;;;;;4842908;29;20493;-47
2021/07/04 05:50:54;;;;;;;12.17;10.93;;;20.80;99.90;;;;;;4842915;29;20464;-44
2021/07/04 05:53:21;;;;;;;11.77;10.57;;;20.90;99.90;;;;;;4843138;29;20448;-43
2021/07/04 05:55:48;;;;;;;11.63;10.40;;;21.00;99.90;;;;;;4842759;29;20457;-42
2021/07/04 05:58:15;;;;;;;10.83;9.70;;;21.20;99.90;;;;;;4843054;29;20943;-42
2021/07/04 08:40:50;;;;;;;5.20;4.70;;;34.90;42.70;;;;;;6121782;22;1214004;-43
2021/07/04 08:43:26;;;;;;;5.40;4.90;;;33.90;44.60;;;;;;6195280;23;20490;-45
2021/07/04 08:45:53;;;;;;;5.00;4.50;;;33.50;44.90;;;;;;6194956;23;20392;-49
2021/07/04 08:48:20;;;;;;;4.57;4.10;;;33.80;45.20;;;;;;6196096;23;20404;-47
2021/07/04 08:50:46;;;;;;;5.67;4.87;;;33.40;44.40;;;;;;6206562;23;20416;-43
2021/07/04 08:53:13;;;;;;;4.20;3.90;;;33.10;44.20;;;;;;6204509;23;20409;-48
2021/07/04 08:55:42;;;;;;;7.60;4.97;;;32.90;44.60;;;;;;6213765;23;20441;-52
2021/07/04 08:58:10;;;;;;;5.10;4.60;;;33.20;45.40;;;;;;6213597;23;20381;-47
2021/07/04 09:00:37;;;;;;;5.57;5.10;;;33.40;45.90;;;;;;6214479;23;20393;-47
2021/07/04 09:03:25;;;;;;;5.43;4.70;;;33.30;46.10;;;;;;6214462;22;20446;-49
2021/07/04 09:05:52;;;;;;;7.30;6.30;;;32.90;47.00;;;;;;6194289;23;20382;-42
2021/07/04 09:08:19;;;;;;;6.40;5.90;;;32.40;47.70;;;;;;6188059;23;20421;-42
2021/07/04 09:10:46;;;;;;;6.57;5.90;;;31.90;49.70;;;;;;6188313;23;20401;-44
2021/07/04 09:13:26;;;;;;;5.10;4.70;;;31.50;49.30;;;;;;6188378;23;20396;-43
2021/07/04 10:17:25;;;;;;;6.65;6.05;;;34.10;49.50;;;;;;6115046;23;21166;31
2021/07/04 10:31:08;;;;;;;5.67;5.17;;;35.50;44.90;;;;;;6158130;23;20889;-46
2021/07/04 10:33:35;;;;;;;6.20;5.70;;;35.10;45.10;;;;;;6157620;23;20464;-49
2021/07/04 10:36:09;;;;;;;7.33;6.00;;;34.70;47.00;;;;;;6157132;23;20397;-49
2021/07/04 10:38:53;;;;;;;6.30;5.70;;;34.40;47.20;;;;;;6157267;23;20392;-49
2021/07/04 10:41:23;;;;;;;7.23;5.60;;;34.20;47.50;;;;;;6157187;23;20444;-44
2021/07/04 10:43:59;;;;;;;6.60;6.00;;;34.00;47.40;;;;;;6157607;23;20445;-48
2021/07/04 10:47:05;;;;;;;7.70;6.93;;;33.70;47.40;;;;;;6157046;23;20401;-45
2021/07/04 10:49:40;;;;;;;7.60;6.13;;;33.30;46.20;;;;;;6157530;23;20409;-50
2021/07/04 10:52:10;;;;;;;6.23;5.57;;;32.80;47.00;;;;;;6157311;23;20462;-47
2021/07/04 10:54:51;;;;;;;6.03;5.60;;;32.50;47.40;;;;;;6157732;23;20718;-51
2021/07/04 10:57:21;;;;;;;6.63;6.03;;;32.00;48.00;;;;;;6156816;23;20764;-48
2021/07/04 11:00:26;;;;;;;7.00;6.30;;;31.40;49.40;;;;;;6157585;23;20448;-46
2021/07/04 11:02:56;;;;;;;6.30;5.70;;;31.00;50.30;;;;;;6157525;23;20434;-49
2021/07/04 11:05:46;;;;;;;6.70;6.17;;;30.50;51.70;;;;;;6157621;23;20767;-47
2021/07/04 11:08:13;;;;;;;10.17;6.23;;;30.30;52.20;;;;;;6157437;23;20708;-50
2021/07/04 11:10:51;;;;;;;11.67;8.90;;;30.20;52.70;;;;;;6157105;23;20414;-46
2021/07/04 11:13:32;;;;;;;7.80;6.47;;;30.10;53.50;;;;;;6157468;23;20398;-45
2021/07/04 11:16:08;;;;;;;7.10;6.40;;;29.80;53.60;;;;;;6156872;23;20689;-46
2021/07/04 11:18:41;;;;;;;5.73;5.23;;;29.60;53.60;;;;;;6156912;23;20500;-46
2021/07/04 11:21:08;;;;;;;6.17;5.57;;;29.60;53.20;;;;;;6157088;23;20398;-45
2021/07/04 11:23:35;;;;;;;6.93;6.33;;;29.70;53.40;;;;;;6156988;23;20891;-47
2021/07/04 11:26:15;;;;;;;5.87;5.33;;;29.80;53.80;;;;;;6156689;23;20406;-45
2021/07/04 11:28:43;;;;;;;8.10;6.70;;;30.00;53.30;;;;;;6156888;23;20401;-48
2021/07/04 11:31:43;;;;;;;6.20;5.60;;;29.90;54.60;;;;;;6157464;23;20489;-46
2021/07/04 11:34:11;;;;;;;6.97;6.37;;;30.00;55.00;;;;;;6156915;23;20405;-48
2021/07/04 11:36:41;;;;;;;7.33;6.73;;;30.00;55.20;;;;;;6156842;23;20405;-49
2021/07/04 11:39:10;;;;;;;7.10;6.40;;;30.10;55.50;;;;;;6156857;23;20685;-48
2021/07/04 11:41:39;;;;;;;6.90;6.30;;;30.00;54.00;;;;;;6156567;23;20766;-47
2021/07/04 11:44:08;;;;;;;7.10;6.40;;;30.00;55.30;;;;;;6156964;23;20520;-48
2021/07/04 11:46:37;;;;;;;10.60;6.80;;;30.00;55.80;;;;;;6156868;23;20484;-47
2021/07/04 11:49:07;;;;;;;11.90;7.00;;;30.10;54.90;;;;;;6156820;23;20492;-44
2021/07/04 11:51:43;;;;;;;6.87;6.27;;;30.10;55.70;;;;;;6157067;23;20393;-50
2021/07/04 11:54:12;;;;;;;6.60;6.00;;;30.20;55.00;;;;;;6156564;23;20396;-49
2021/07/04 11:56:42;;;;;;;5.90;5.40;;;30.10;55.50;;;;;;6156777;23;20429;-51
2021/07/04 11:59:12;;;;;;;5.90;5.30;;;30.00;55.20;;;;;;6156917;23;20382;-51
2021/07/04 12:01:44;;;;;;;6.60;6.00;;;29.80;55.10;;;;;;6156714;23;20405;-50
2021/07/04 12:04:11;;;;;;;7.43;6.07;;;29.70;56.20;;;;;;6156376;23;20434;-51
2021/07/04 12:07:01;;;;;;;7.13;6.43;;;29.80;57.60;;;;;;6155811;23;20952;-47
2021/07/04 12:09:40;;;;;;;6.70;6.10;;;29.90;57.70;;;;;;6156709;23;20390;-43
2021/07/04 12:12:13;;;;;;;7.53;6.40;;;30.00;56.80;;;;;;6156578;23;20405;-44
2021/07/04 12:14:40;;;;;;;11.70;6.13;;;30.10;56.30;;;;;;6156727;23;20393;-50
2021/07/04 12:17:32;;;;;;;12.70;11.40;;;30.20;57.20;;;;;;6156304;23;20409;-51
2021/07/04 12:20:06;;;;;;;13.80;9.30;;;30.10;56.80;;;;;;6128283;23;20421;-47
2021/07/04 12:22:35;;;;;;;7.47;6.77;;;30.10;57.20;;;;;;6156686;23;20430;-46
2021/07/04 12:25:06;;;;;;;6.33;5.73;;;30.00;56.70;;;;;;6156811;23;20418;-49
2021/07/04 12:27:39;;;;;;;6.27;5.57;;;30.00;55.70;;;;;;6156850;23;20398;-50
2021/07/04 12:30:11;;;;;;;7.70;7.00;;;30.10;56.90;;;;;;6157789;23;20442;-51
2021/07/04 12:32:42;;;;;;;7.10;6.23;;;30.10;56.40;;;;;;6158553;23;20411;-47
2021/07/04 12:35:18;;;;;;;9.83;6.50;;;30.00;57.10;;;;;;6158212;23;20390;-51
2021/07/04 12:37:47;;;;;;;8.20;6.13;;;29.90;55.70;;;;;;6158508;23;20488;-48
2021/07/04 12:40:16;;;;;;;6.70;6.00;;;29.90;54.80;;;;;;6158477;23;20757;-46
2021/07/04 12:42:43;;;;;;;6.47;5.87;;;29.80;56.10;;;;;;6158055;23;20445;-45
2021/07/04 12:45:12;;;;;;;11.33;10.00;;;29.80;55.80;;;;;;6158452;23;20416;-46
2021/07/04 12:47:40;;;;;;;9.40;6.20;;;29.80;55.70;;;;;;6157874;23;20417;-50
2021/07/04 12:50:10;;;;;;;6.60;6.00;;;29.80;57.30;;;;;;6157949;23;20453;-51
2021/07/04 12:52:37;;;;;;;6.57;5.77;;;29.80;57.10;;;;;;6158451;23;20390;-50
2021/07/04 12:55:06;;;;;;;9.37;6.30;;;29.90;56.80;;;;;;6158412;23;20465;-52
2021/07/04 12:57:34;;;;;;;6.10;5.60;;;30.00;56.70;;;;;;6158154;23;20757;-47
2021/07/04 13:00:17;;;;;;;7.10;5.70;;;30.10;56.80;;;;;;6158106;23;20657;-46
2021/07/04 13:02:45;;;;;;;5.93;5.43;;;30.10;56.10;;;;;;6158301;23;20425;-48
2021/07/04 13:05:12;;;;;;;6.40;5.80;;;30.30;55.30;;;;;;6157925;23;20861;-50
2021/07/04 13:07:42;;;;;;;7.20;6.60;;;30.30;55.00;;;;;;6158235;23;20468;-46
2021/07/04 13:10:10;;;;;;;7.10;6.47;;;30.30;55.40;;;;;;6157880;23;20401;-50
2021/07/04 13:12:40;;;;;;;6.50;5.77;;;30.20;54.50;;;;;;6157922;23;20397;-47
2021/07/04 13:15:08;;;;;;;6.57;5.97;;;30.00;55.80;;;;;;6157679;23;20409;-44
2021/07/04 13:17:40;;;;;;;6.47;5.90;;;29.80;55.70;;;;;;6158205;23;20441;-46
2021/07/04 13:20:19;;;;;;;7.90;6.87;;;29.60;56.00;;;;;;6158285;23;20401;-47
2021/07/04 13:22:47;;;;;;;6.40;5.30;;;29.40;55.00;;;;;;6158124;23;20429;-50
2021/07/04 13:25:20;;;;;;;10.53;5.97;;;29.30;55.90;;;;;;6157779;23;20876;-48
2021/07/04 13:27:58;;;;;;;6.63;5.30;;;29.30;55.30;;;;;;6158054;23;20386;-49
2021/07/04 13:30:25;;;;;;;5.70;5.20;;;29.20;55.20;;;;;;6157695;23;20433;-47
2021/07/04 13:32:56;;;;;;;5.63;5.13;;;29.30;54.60;;;;;;6157761;23;20405;-51
2021/07/04 13:35:29;;;;;;;6.97;6.37;;;29.30;55.70;;;;;;6158111;23;20397;-51
2021/07/04 13:37:59;;;;;;;5.60;5.10;;;29.50;55.70;;;;;;6158121;23;20421;-47
2021/07/04 13:40:27;;;;;;;6.40;5.90;;;29.60;56.20;;;;;;6157984;23;20476;-49
2021/07/04 13:42:55;;;;;;;5.90;5.40;;;29.70;54.70;;;;;;6157968;23;20448;-46
2021/07/04 13:45:29;;;;;;;6.60;6.07;;;29.90;55.50;;;;;;6157966;23;20414;-49
2021/07/04 13:47:57;;;;;;;6.17;5.60;;;30.10;55.10;;;;;;6158047;23;20421;-46
2021/07/04 13:50:24;;;;;;;6.23;5.73;;;30.30;54.70;;;;;;6157536;23;20428;-45
2021/07/04 13:52:51;;;;;;;5.60;5.20;;;30.30;53.60;;;;;;6157507;23;20430;-49
2021/07/04 13:55:18;;;;;;;5.90;5.37;;;30.30;53.40;;;;;;6157582;23;20720;-47
2021/07/04 13:57:46;;;;;;;6.73;6.13;;;30.40;53.40;;;;;;6157837;23;20402;-49
2021/07/04 14:00:14;;;;;;;6.40;5.80;;;30.60;53.80;;;;;;6157512;23;20885;-48
2021/07/04 14:02:41;;;;;;;6.57;5.93;;;30.70;54.80;;;;;;6157710;23;20413;-47
2021/07/04 14:05:08;;;;;;;6.23;5.70;;;30.80;54.70;;;;;;6157804;23;20405;-50
2021/07/04 14:07:35;;;;;;;6.30;5.70;;;30.60;53.10;;;;;;6157773;23;20413;-47
2021/07/04 14:10:02;;;;;;;6.73;6.03;;;30.50;54.30;;;;;;6157713;23;20424;-52
2021/07/04 14:12:29;;;;;;;6.90;6.30;;;30.30;54.50;;;;;;6157707;23;20713;-52
2021/07/04 14:14:57;;;;;;;6.77;6.17;;;30.20;55.10;;;;;;6157275;23;20460;-49
2021/07/04 14:17:26;;;;;;;7.57;6.47;;;30.00;55.50;;;;;;6157373;23;20406;-49
2021/07/04 14:19:54;;;;;;;7.33;6.70;;;29.80;54.60;;;;;;6157607;23;20409;-49
2021/07/04 14:22:20;;;;;;;7.07;5.53;;;29.50;55.60;;;;;;6157605;23;20440;-48
2021/07/04 14:24:47;;;;;;;8.63;7.83;;;29.30;56.00;;;;;;6157085;23;20993;-45
2021/07/04 14:27:14;;;;;;;6.90;6.30;;;29.10;55.70;;;;;;6157475;23;20484;-51
2021/07/04 14:29:40;;;;;;;6.73;6.13;;;28.90;55.20;;;;;;6157023;23;20426;-52
2021/07/04 14:32:09;;;;;;;7.10;6.37;;;28.80;56.70;;;;;;6157599;23;20401;-51
2021/07/04 14:34:36;;;;;;;6.90;6.27;;;28.60;57.10;;;;;;6157051;23;20464;-47
2021/07/04 14:37:03;;;;;;;7.10;6.40;;;28.50;57.90;;;;;;6157119;23;20853;-47
2021/07/04 14:39:30;;;;;;;7.27;6.60;;;28.40;59.20;;;;;;6157506;23;20468;-46
2021/07/04 14:41:57;;;;;;;6.73;6.20;;;28.40;57.50;;;;;;6157437;23;20402;-50
2021/07/04 14:44:25;;;;;;;6.80;6.20;;;28.40;57.20;;;;;;6156921;23;20504;-48
2021/07/04 14:46:51;;;;;;;6.60;6.00;;;28.50;56.90;;;;;;6157292;23;20432;-51
2021/07/04 14:49:19;;;;;;;7.13;6.50;;;28.70;56.80;;;;;;6157041;23;20468;-50
2021/07/04 14:51:48;;;;;;;6.83;6.10;;;28.90;58.10;;;;;;6157063;23;20481;-49
2021/07/04 14:54:15;;;;;;;7.50;6.80;;;29.20;57.40;;;;;;6156925;23;20924;-51
2021/07/04 14:56:42;;;;;;;7.03;6.20;;;29.40;57.20;;;;;;6157288;23;20486;-46
2021/07/04 14:59:11;;;;;;;7.13;6.57;;;29.50;56.10;;;;;;6156886;23;20889;-50
2021/07/04 15:01:39;;;;;;;6.30;5.80;;;29.40;56.80;;;;;;6157267;23;20501;-46
2021/07/04 15:04:07;;;;;;;7.00;6.33;;;29.30;56.80;;;;;;6157086;23;20448;-49
2021/07/04 15:06:35;;;;;;;6.53;6.00;;;29.30;57.40;;;;;;6157211;23;20422;-50
2021/07/04 15:09:02;;;;;;;7.97;6.50;;;29.20;56.50;;;;;;6156061;23;20923;-50
2021/07/04 15:11:30;;;;;;;7.13;6.43;;;29.20;57.50;;;;;;6156835;23;20417;-48
2021/07/04 15:13:57;;;;;;;7.67;6.90;;;29.10;57.50;;;;;;6157088;23;20456;-52
2021/07/04 15:16:24;;;;;;;6.73;6.13;;;29.00;57.80;;;;;;6156755;23;20868;-45
2021/07/04 15:18:51;;;;;;;5.87;5.27;;;28.90;58.30;;;;;;6157227;23;20405;-47
2021/07/04 15:21:17;;;;;;;10.40;6.13;;;28.80;58.60;;;;;;6157166;23;20773;-49
2021/07/04 15:23:45;;;;;;;9.47;8.47;;;28.70;58.70;;;;;;6156618;23;20441;-54
2021/07/04 15:26:13;;;;;;;6.87;6.27;;;28.70;58.60;;;;;;6157118;23;20422;-47
2021/07/04 15:28:40;;;;;;;7.30;6.40;;;28.80;59.00;;;;;;6156565;23;20405;-51
2021/07/04 15:31:07;;;;;;;7.77;7.07;;;28.90;58.60;;;;;;6157164;23;20472;-45
2021/07/04 15:33:34;;;;;;;7.27;6.50;;;28.80;58.50;;;;;;6156656;23;20939;-48
2021/07/04 15:36:03;;;;;;;6.17;5.63;;;28.90;57.90;;;;;;6156674;23;20405;-50
2021/07/04 15:38:30;;;;;;;7.00;6.30;;;28.80;57.30;;;;;;6157019;23;20440;-51
2021/07/04 15:40:58;;;;;;;7.60;6.30;;;28.80;58.20;;;;;;6156644;23;20420;-46
2021/07/04 15:43:25;;;;;;;9.00;6.80;;;28.70;58.30;;;;;;6156901;23;20449;-50
2021/07/04 15:45:51;;;;;;;7.60;6.77;;;28.70;58.00;;;;;;6156561;23;20915;-51
2021/07/04 15:48:18;;;;;;;8.43;7.70;;;28.70;58.80;;;;;;6156581;23;20468;-50
2021/07/04 15:50:44;;;;;;;8.20;6.30;;;28.70;58.60;;;;;;6156930;23;20417;-45
2021/07/04 15:53:11;;;;;;;7.60;6.40;;;28.70;58.00;;;;;;6156959;23;20418;-46
2021/07/04 15:55:38;;;;;;;8.27;7.23;;;28.80;58.90;;;;;;6156969;23;20460;-50
2021/07/04 15:58:07;;;;;;;7.13;6.47;;;28.80;57.90;;;;;;6156962;23;20409;-46
2021/07/04 16:00:35;;;;;;;7.27;6.67;;;28.80;57.70;;;;;;6156941;23;20417;-44
2021/07/04 16:03:08;;;;;;;8.20;7.00;;;28.80;58.10;;;;;;6156629;23;20430;-43
2021/07/04 16:05:36;;;;;;;6.70;6.10;;;28.70;58.20;;;;;;6158503;23;20468;-45
2021/07/04 16:08:07;;;;;;;7.83;7.13;;;28.60;57.50;;;;;;6158850;23;20712;-48
2021/07/04 16:10:33;;;;;;;6.80;6.10;;;28.70;58.00;;;;;;6158873;23;20468;-45
2021/07/04 16:13:03;;;;;;;6.87;6.27;;;28.60;58.40;;;;;;6158816;23;20456;-49
2021/07/04 16:15:32;;;;;;;8.57;6.00;;;28.50;58.40;;;;;;6158890;23;20463;-50
2021/07/04 16:17:59;;;;;;;7.07;6.37;;;28.50;58.70;;;;;;6158744;23;20717;-45
2021/07/04 16:20:25;;;;;;;6.60;6.10;;;28.40;57.70;;;;;;6158781;23;20402;-47
2021/07/04 16:22:52;;;;;;;7.50;6.90;;;28.40;58.60;;;;;;6158352;23;20869;-46
2021/07/04 16:25:21;;;;;;;6.90;6.40;;;28.40;58.80;;;;;;6158654;23;20442;-46
2021/07/04 16:27:49;;;;;;;7.47;6.87;;;28.30;58.10;;;;;;6158700;23;20410;-48
2021/07/04 16:30:18;;;;;;;8.20;7.40;;;28.30;59.00;;;;;;6158183;23;20445;-51
2021/07/04 16:32:47;;;;;;;10.13;9.10;;;28.30;58.40;;;;;;6158364;23;20413;-45
2021/07/04 16:35:16;;;;;;;8.27;7.47;;;28.30;58.70;;;;;;6158156;23;20414;-49
2021/07/04 16:37:43;;;;;;;8.40;7.50;;;28.30;57.90;;;;;;6158644;23;20476;-44
2021/07/04 16:40:15;;;;;;;9.03;8.10;;;28.20;58.20;;;;;;6158628;23;20444;-52
2021/07/04 16:42:42;;;;;;;10.30;9.30;;;28.20;59.10;;;;;;6158242;23;20819;-48
2021/07/04 16:45:10;;;;;;;8.20;7.33;;;28.10;59.60;;;;;;6158394;23;20506;-51
2021/07/04 16:47:36;;;;;;;9.03;6.80;;;28.10;60.10;;;;;;6158492;23;20401;-48
2021/07/04 16:50:06;;;;;;;6.97;6.27;;;28.00;60.30;;;;;;6158488;23;20480;-47
2021/07/04 16:52:33;;;;;;;11.53;7.27;;;27.90;60.70;;;;;;6158412;23;20417;-46
2021/07/04 16:55:01;;;;;;;26.17;23.47;;;27.90;60.70;;;;;;6158110;23;20406;-51
2021/07/04 16:57:28;;;;;;;17.00;15.20;;;27.80;61.40;;;;;;6158280;23;20422;-51
2021/07/04 16:59:54;;;;;;;19.80;17.37;;;27.80;61.20;;;;;;6157945;23;20406;-51
2021/07/04 17:02:21;;;;;;;16.10;14.47;;;27.80;62.00;;;;;;6158321;23;20413;-49
2021/07/04 17:04:48;;;;;;;11.70;10.60;;;27.70;62.20;;;;;;6157763;23;20504;-49
2021/07/04 17:07:16;;;;;;;10.50;9.50;;;27.70;61.40;;;;;;6158310;23;20848;-47
2021/07/04 17:09:43;;;;;;;11.83;7.50;;;27.60;62.10;;;;;;6157949;23;20416;-49
2021/07/04 17:12:11;;;;;;;9.63;6.90;;;27.50;61.70;;;;;;6158332;23;20402;-44
2021/07/04 17:14:37;;;;;;;10.13;8.17;;;27.50;61.20;;;;;;6158049;23;20500;-49
2021/07/04 17:17:05;;;;;;;7.30;6.60;;;27.40;62.20;;;;;;6157824;23;20441;-46
2021/07/04 17:19:32;;;;;;;8.60;7.33;;;27.30;61.40;;;;;;6158188;23;20410;-47
2021/07/04 17:21:59;;;;;;;8.60;7.77;;;27.20;62.30;;;;;;6157829;23;20883;-47
2021/07/04 17:24:27;;;;;;;8.27;7.57;;;27.20;62.50;;;;;;6158074;23;20441;-45
2021/07/04 17:26:53;;;;;;;7.90;7.20;;;27.10;62.00;;;;;;6158148;23;20741;-46
2021/07/04 17:29:20;;;;;;;8.63;7.73;;;27.10;61.50;;;;;;6157731;23;20519;-44
2021/07/04 17:31:47;;;;;;;10.13;9.07;;;27.00;62.50;;;;;;6158139;23;20390;-46
2021/07/04 17:34:14;;;;;;;10.07;9.07;;;27.00;63.40;;;;;;6158031;23;20417;-46
2021/07/04 17:36:41;;;;;;;9.53;8.63;;;27.00;63.30;;;;;;6158009;23;20692;-44
2021/07/04 17:39:15;;;;;;;8.83;7.93;;;26.90;63.60;;;;;;6158016;23;20472;-45